sensor_id;sensor_type;location;lat;lon;timestamp;temperature;humidity
26164;DHT22;13914;48.178;11.716;2024-03-08T00:02:13;3.10;12.60
26164;DHT22;13914;48.178;11.716;2024-03-08T00:04:39;3.10;12.60
26164;DHT22;13914;48.178;11.716;2024-03-08T00:07:05;3.10;12.60
26164;DHT22;13914;48.178;11.716;2024-03-08T00:09:32;3.10;12.70
26164;DHT22;13914;48.178;11.716;2024-03-08T00:11:58;3.10;12.70
26164;DHT22;13914;48.178;11.716;2024-03-08T00:14:23;3.00;12.70
26164;DHT22;13914;48.178;11.716;2024-03-08T00:16:49;3.00;12.70
26164;DHT22;13914;48.178;11.716;2024-03-08T00:19:15;3.00;12.70
26164;DHT22;13914;48.178;11.716;2024-03-08T00:21:40;3.00;12.70
26164;DHT22;13914;48.178;11.716;2024-03-08T00:24:07;3.00;12.70
26164;DHT22;13914;48.178;11.716;2024-03-08T00:26:33;2.90;12.70
26164;DHT22;13914;48.178;11.716;2024-03-08T00:28:59;2.90;12.70
26164;DHT22;13914;48.178;11.716;2024-03-08T00:31:24;2.90;12.70
26164;DHT22;13914;48.178;11.716;2024-03-08T00:33:50;2.90;12.70
26164;DHT22;13914;48.178;11.716;2024-03-08T00:36:17;2.90;12.70
26164;DHT22;13914;48.178;11.716;2024-03-08T00:38:43;2.90;12.80
26164;DHT22;13914;48.178;11.716;2024-03-08T00:41:09;2.80;12.80
26164;DHT22;13914;48.178;11.716;2024-03-08T00:43:34;2.80;12.80
26164;DHT22;13914;48.178;11.716;2024-03-08T00:46:00;2.80;12.80
26164;DHT22;13914;48.178;11.716;2024-03-08T00:48:26;2.80;12.80
26164;DHT22;13914;48.178;11.716;2024-03-08T00:50:53;2.80;12.90
26164;DHT22;13914;48.178;11.716;2024-03-08T00:53:18;2.70;12.90
26164;DHT22;13914;48.178;11.716;2024-03-08T00:55:44;2.80;12.80
26164;DHT22;13914;48.178;11.716;2024-03-08T00:58:12;2.70;12.80
26164;DHT22;13914;48.178;11.716;2024-03-08T01:00:38;2.70;12.90
26164;DHT22;13914;48.178;11.716;2024-03-08T01:03:07;2.70;12.90
26164;DHT22;13914;48.178;11.716;2024-03-08T01:05:33;2.70;12.90
26164;DHT22;13914;48.178;11.716;2024-03-08T01:07:59;2.70;12.90
26164;DHT22;13914;48.178;11.716;2024-03-08T01:10:24;2.70;12.90
26164;DHT22;13914;48.178;11.716;2024-03-08T01:12:50;2.60;12.90
26164;DHT22;13914;48.178;11.716;2024-03-08T01:15:16;2.60;12.80
26164;DHT22;13914;48.178;11.716;2024-03-08T01:17:41;2.60;12.90
26164;DHT22;13914;48.178;11.716;2024-03-08T01:20:10;2.60;12.90
26164;DHT22;13914;48.178;11.716;2024-03-08T01:22:40;2.60;12.90
26164;DHT22;13914;48.178;11.716;2024-03-08T01:25:06;2.50;12.90
26164;DHT22;13914;48.178;11.716;2024-03-08T01:27:31;2.50;13.40
26164;DHT22;13914;48.178;11.716;2024-03-08T01:29:57;2.50;12.90
26164;DHT22;13914;48.178;11.716;2024-03-08T01:32:24;2.50;12.90
26164;DHT22;13914;48.178;11.716;2024-03-08T01:34:50;2.50;12.90
26164;DHT22;13914;48.178;11.716;2024-03-08T01:37:16;2.40;13.00
26164;DHT22;13914;48.178;11.716;2024-03-08T01:39:41;2.50;13.00
26164;DHT22;13914;48.178;11.716;2024-03-08T01:42:07;2.50;13.00
26164;DHT22;13914;48.178;11.716;2024-03-08T01:44:33;2.40;12.90
26164;DHT22;13914;48.178;11.716;2024-03-08T01:46:59;2.40;13.00
26164;DHT22;13914;48.178;11.716;2024-03-08T01:49:25;2.40;13.00
26164;DHT22;13914;48.178;11.716;2024-03-08T01:51:51;2.40;13.00
26164;DHT22;13914;48.178;11.716;2024-03-08T01:54:18;2.40;13.00
26164;DHT22;13914;48.178;11.716;2024-03-08T01:56:45;2.30;13.00
26164;DHT22;13914;48.178;11.716;2024-03-08T01:59:11;2.30;13.00
26164;DHT22;13914;48.178;11.716;2024-03-08T02:01:39;2.30;13.00
26164;DHT22;13914;48.178;11.716;2024-03-08T02:04:05;2.30;13.00
26164;DHT22;13914;48.178;11.716;2024-03-08T02:06:32;2.30;13.00
26164;DHT22;13914;48.178;11.716;2024-03-08T02:08:58;2.30;13.10
26164;DHT22;13914;48.178;11.716;2024-03-08T02:11:24;2.30;13.10
26164;DHT22;13914;48.178;11.716;2024-03-08T02:13:49;2.30;13.10
26164;DHT22;13914;48.178;11.716;2024-03-08T02:16:21;2.20;13.00
26164;DHT22;13914;48.178;11.716;2024-03-08T02:18:47;2.20;13.00
26164;DHT22;13914;48.178;11.716;2024-03-08T02:21:13;2.20;13.10
26164;DHT22;13914;48.178;11.716;2024-03-08T02:23:43;2.20;13.10
26164;DHT22;13914;48.178;11.716;2024-03-08T02:26:09;2.20;13.10
26164;DHT22;13914;48.178;11.716;2024-03-08T02:28:35;2.20;13.10
26164;DHT22;13914;48.178;11.716;2024-03-08T02:31:01;2.20;13.10
26164;DHT22;13914;48.178;11.716;2024-03-08T02:33:27;2.20;13.10
26164;DHT22;13914;48.178;11.716;2024-03-08T02:35:54;2.20;13.10
26164;DHT22;13914;48.178;11.716;2024-03-08T02:38:21;2.10;13.00
26164;DHT22;13914;48.178;11.716;2024-03-08T02:40:51;2.10;13.20
26164;DHT22;13914;48.178;11.716;2024-03-08T02:43:18;2.10;13.10
26164;DHT22;13914;48.178;11.716;2024-03-08T02:45:44;2.10;13.00
26164;DHT22;13914;48.178;11.716;2024-03-08T02:48:13;2.10;13.10
26164;DHT22;13914;48.178;11.716;2024-03-08T02:50:39;2.10;13.20
26164;DHT22;13914;48.178;11.716;2024-03-08T02:53:05;2.00;13.20
26164;DHT22;13914;48.178;11.716;2024-03-08T02:55:31;2.00;13.20
26164;DHT22;13914;48.178;11.716;2024-03-08T02:57:59;2.10;13.30
26164;DHT22;13914;48.178;11.716;2024-03-08T03:00:24;2.00;13.30
26164;DHT22;13914;48.178;11.716;2024-03-08T03:02:50;2.00;13.40
26164;DHT22;13914;48.178;11.716;2024-03-08T03:05:19;2.00;13.30
26164;DHT22;13914;48.178;11.716;2024-03-08T03:07:48;2.00;13.30
26164;DHT22;13914;48.178;11.716;2024-03-08T03:10:14;2.00;13.30
26164;DHT22;13914;48.178;11.716;2024-03-08T03:12:42;1.90;13.30
26164;DHT22;13914;48.178;11.716;2024-03-08T03:15:08;1.90;13.30
26164;DHT22;13914;48.178;11.716;2024-03-08T03:17:34;1.90;13.20
26164;DHT22;13914;48.178;11.716;2024-03-08T03:19:59;1.90;13.30
26164;DHT22;13914;48.178;11.716;2024-03-08T03:22:30;1.90;13.30
26164;DHT22;13914;48.178;11.716;2024-03-08T03:24:55;1.90;13.30
26164;DHT22;13914;48.178;11.716;2024-03-08T03:27:23;1.90;13.30
26164;DHT22;13914;48.178;11.716;2024-03-08T03:29:50;1.90;13.30
26164;DHT22;13914;48.178;11.716;2024-03-08T03:32:17;1.90;13.30
26164;DHT22;13914;48.178;11.716;2024-03-08T03:34:44;1.80;13.20
26164;DHT22;13914;48.178;11.716;2024-03-08T03:37:10;1.80;13.30
26164;DHT22;13914;48.178;11.716;2024-03-08T03:39:39;1.80;13.30
26164;DHT22;13914;48.178;11.716;2024-03-08T03:42:19;1.80;13.40
26164;DHT22;13914;48.178;11.716;2024-03-08T03:44:47;1.80;13.30
26164;DHT22;13914;48.178;11.716;2024-03-08T03:47:14;1.80;13.30
26164;DHT22;13914;48.178;11.716;2024-03-08T03:49:40;1.80;13.30
26164;DHT22;13914;48.178;11.716;2024-03-08T03:52:06;1.80;13.20
26164;DHT22;13914;48.178;11.716;2024-03-08T03:54:32;1.80;13.30
26164;DHT22;13914;48.178;11.716;2024-03-08T03:56:58;1.80;13.30
26164;DHT22;13914;48.178;11.716;2024-03-08T03:59:24;1.80;13.30
26164;DHT22;13914;48.178;11.716;2024-03-08T04:01:49;1.70;13.20
26164;DHT22;13914;48.178;11.716;2024-03-08T04:04:15;1.70;13.30
26164;DHT22;13914;48.178;11.716;2024-03-08T04:06:41;1.70;13.30
26164;DHT22;13914;48.178;11.716;2024-03-08T04:09:07;1.70;13.30
26164;DHT22;13914;48.178;11.716;2024-03-08T04:11:33;1.70;13.30
26164;DHT22;13914;48.178;11.716;2024-03-08T04:13:58;1.70;13.30
26164;DHT22;13914;48.178;11.716;2024-03-08T04:16:24;1.70;13.30
26164;DHT22;13914;48.178;11.716;2024-03-08T04:18:51;1.60;13.30
26164;DHT22;13914;48.178;11.716;2024-03-08T04:21:17;1.70;13.30
26164;DHT22;13914;48.178;11.716;2024-03-08T04:23:44;1.70;13.30
26164;DHT22;13914;48.178;11.716;2024-03-08T04:26:10;1.60;13.30
26164;DHT22;13914;48.178;11.716;2024-03-08T04:28:36;1.60;13.30
26164;DHT22;13914;48.178;11.716;2024-03-08T04:31:05;1.60;13.30
26164;DHT22;13914;48.178;11.716;2024-03-08T04:33:32;1.60;13.40
26164;DHT22;13914;48.178;11.716;2024-03-08T04:35:57;1.60;13.40
26164;DHT22;13914;48.178;11.716;2024-03-08T04:38:23;1.60;13.40
26164;DHT22;13914;48.178;11.716;2024-03-08T04:40:50;1.60;13.40
26164;DHT22;13914;48.178;11.716;2024-03-08T04:43:15;1.60;13.40
26164;DHT22;13914;48.178;11.716;2024-03-08T04:45:44;1.50;13.40
26164;DHT22;13914;48.178;11.716;2024-03-08T04:48:10;1.50;13.40
26164;DHT22;13914;48.178;11.716;2024-03-08T04:50:36;1.50;13.40
26164;DHT22;13914;48.178;11.716;2024-03-08T04:53:03;1.50;13.40
26164;DHT22;13914;48.178;11.716;2024-03-08T04:55:31;1.50;13.40
26164;DHT22;13914;48.178;11.716;2024-03-08T04:57:56;1.50;13.50
26164;DHT22;13914;48.178;11.716;2024-03-08T05:00:22;1.50;13.50
26164;DHT22;13914;48.178;11.716;2024-03-08T05:02:48;1.40;13.40
26164;DHT22;13914;48.178;11.716;2024-03-08T05:05:13;1.50;13.50
26164;DHT22;13914;48.178;11.716;2024-03-08T05:07:40;1.40;13.60
26164;DHT22;13914;48.178;11.716;2024-03-08T05:10:06;1.40;13.50
26164;DHT22;13914;48.178;11.716;2024-03-08T05:12:33;1.40;13.50
26164;DHT22;13914;48.178;11.716;2024-03-08T05:14:58;1.40;13.60
26164;DHT22;13914;48.178;11.716;2024-03-08T05:17:24;1.40;13.60
26164;DHT22;13914;48.178;11.716;2024-03-08T05:19:50;1.40;13.50
26164;DHT22;13914;48.178;11.716;2024-03-08T05:22:16;1.40;13.60
26164;DHT22;13914;48.178;11.716;2024-03-08T05:24:43;1.40;13.60
26164;DHT22;13914;48.178;11.716;2024-03-08T05:27:08;1.40;13.60
26164;DHT22;13914;48.178;11.716;2024-03-08T05:29:34;1.40;13.70
26164;DHT22;13914;48.178;11.716;2024-03-08T05:32:00;1.40;13.70
26164;DHT22;13914;48.178;11.716;2024-03-08T05:34:26;1.40;13.70
26164;DHT22;13914;48.178;11.716;2024-03-08T05:36:54;1.30;13.60
26164;DHT22;13914;48.178;11.716;2024-03-08T05:39:20;1.40;13.70
26164;DHT22;13914;48.178;11.716;2024-03-08T05:41:45;1.40;13.70
26164;DHT22;13914;48.178;11.716;2024-03-08T05:44:12;1.40;13.80
26164;DHT22;13914;48.178;11.716;2024-03-08T05:46:38;1.40;13.80
26164;DHT22;13914;48.178;11.716;2024-03-08T05:49:05;1.30;13.70
26164;DHT22;13914;48.178;11.716;2024-03-08T05:51:34;1.40;13.70
26164;DHT22;13914;48.178;11.716;2024-03-08T05:54:02;1.30;13.70
26164;DHT22;13914;48.178;11.716;2024-03-08T05:56:30;1.40;13.80
26164;DHT22;13914;48.178;11.716;2024-03-08T05:58:55;1.30;13.70
26164;DHT22;13914;48.178;11.716;2024-03-08T06:01:22;1.30;13.70
26164;DHT22;13914;48.178;11.716;2024-03-08T06:03:47;1.30;13.70
26164;DHT22;13914;48.178;11.716;2024-03-08T06:06:14;1.30;13.70
26164;DHT22;13914;48.178;11.716;2024-03-08T06:08:43;1.30;13.70
26164;DHT22;13914;48.178;11.716;2024-03-08T06:11:09;1.30;13.80
26164;DHT22;13914;48.178;11.716;2024-03-08T06:13:35;1.30;13.80
26164;DHT22;13914;48.178;11.716;2024-03-08T06:16:01;1.30;13.80
26164;DHT22;13914;48.178;11.716;2024-03-08T06:18:32;1.30;13.80
26164;DHT22;13914;48.178;11.716;2024-03-08T06:20:58;1.30;13.70
26164;DHT22;13914;48.178;11.716;2024-03-08T06:23:23;1.30;13.80
26164;DHT22;13914;48.178;11.716;2024-03-08T06:25:50;1.30;13.80
26164;DHT22;13914;48.178;11.716;2024-03-08T06:28:16;1.30;13.80
26164;DHT22;13914;48.178;11.716;2024-03-08T06:30:42;1.40;13.90
26164;DHT22;13914;48.178;11.716;2024-03-08T06:33:08;1.30;13.90
26164;DHT22;13914;48.178;11.716;2024-03-08T06:35:34;1.40;13.90
26164;DHT22;13914;48.178;11.716;2024-03-08T06:38:06;1.40;13.90
26164;DHT22;13914;48.178;11.716;2024-03-08T06:40:31;1.30;14.00
26164;DHT22;13914;48.178;11.716;2024-03-08T06:42:57;1.30;14.00
26164;DHT22;13914;48.178;11.716;2024-03-08T06:45:23;1.40;14.10
26164;DHT22;13914;48.178;11.716;2024-03-08T06:47:49;1.40;14.10
26164;DHT22;13914;48.178;11.716;2024-03-08T06:50:15;1.40;14.10
26164;DHT22;13914;48.178;11.716;2024-03-08T06:52:41;1.40;14.20
26164;DHT22;13914;48.178;11.716;2024-03-08T06:55:11;1.40;14.30
26164;DHT22;13914;48.178;11.716;2024-03-08T06:57:40;1.40;14.30
26164;DHT22;13914;48.178;11.716;2024-03-08T07:00:09;1.50;14.30
26164;DHT22;13914;48.178;11.716;2024-03-08T07:02:36;1.50;14.30
26164;DHT22;13914;48.178;11.716;2024-03-08T07:05:02;1.50;14.40
26164;DHT22;13914;48.178;11.716;2024-03-08T07:07:29;1.50;14.50
26164;DHT22;13914;48.178;11.716;2024-03-08T07:09:57;1.50;14.50
26164;DHT22;13914;48.178;11.716;2024-03-08T07:12:23;1.50;14.50
26164;DHT22;13914;48.178;11.716;2024-03-08T07:14:49;1.60;14.50
26164;DHT22;13914;48.178;11.716;2024-03-08T07:17:14;1.60;14.60
26164;DHT22;13914;48.178;11.716;2024-03-08T07:19:41;1.60;14.60
26164;DHT22;13914;48.178;11.716;2024-03-08T07:22:07;1.60;14.50
26164;DHT22;13914;48.178;11.716;2024-03-08T07:24:35;1.60;14.50
26164;DHT22;13914;48.178;11.716;2024-03-08T07:27:16;1.70;14.60
26164;DHT22;13914;48.178;11.716;2024-03-08T07:29:42;1.70;14.60
26164;DHT22;13914;48.178;11.716;2024-03-08T07:32:08;1.70;14.50
26164;DHT22;13914;48.178;11.716;2024-03-08T07:34:45;1.70;14.50
26164;DHT22;13914;48.178;11.716;2024-03-08T07:37:11;1.80;14.50
26164;DHT22;13914;48.178;11.716;2024-03-08T07:39:37;1.80;14.50
26164;DHT22;13914;48.178;11.716;2024-03-08T07:42:04;1.80;14.50
26164;DHT22;13914;48.178;11.716;2024-03-08T07:44:30;1.90;14.50
26164;DHT22;13914;48.178;11.716;2024-03-08T07:46:57;1.90;14.50
26164;DHT22;13914;48.178;11.716;2024-03-08T07:49:22;1.90;14.50
26164;DHT22;13914;48.178;11.716;2024-03-08T07:51:48;2.00;14.60
26164;DHT22;13914;48.178;11.716;2024-03-08T07:54:14;2.00;15.10
26164;DHT22;13914;48.178;11.716;2024-03-08T07:56:40;2.00;14.70
26164;DHT22;13914;48.178;11.716;2024-03-08T07:59:06;2.10;14.90
26164;DHT22;13914;48.178;11.716;2024-03-08T08:01:32;2.10;15.20
26164;DHT22;13914;48.178;11.716;2024-03-08T08:03:59;2.20;15.60
26164;DHT22;13914;48.178;11.716;2024-03-08T08:06:26;2.30;16.00
26164;DHT22;13914;48.178;11.716;2024-03-08T08:08:52;2.30;16.10
26164;DHT22;13914;48.178;11.716;2024-03-08T08:11:19;2.40;16.30
26164;DHT22;13914;48.178;11.716;2024-03-08T08:13:45;2.40;16.60
26164;DHT22;13914;48.178;11.716;2024-03-08T08:16:11;2.50;16.70
26164;DHT22;13914;48.178;11.716;2024-03-08T08:18:38;2.60;16.90
26164;DHT22;13914;48.178;11.716;2024-03-08T08:21:05;2.70;17.30
26164;DHT22;13914;48.178;11.716;2024-03-08T08:23:32;2.80;17.10
26164;DHT22;13914;48.178;11.716;2024-03-08T08:25:58;2.90;17.20
26164;DHT22;13914;48.178;11.716;2024-03-08T08:28:23;2.90;17.30
26164;DHT22;13914;48.178;11.716;2024-03-08T08:30:49;3.00;17.40
26164;DHT22;13914;48.178;11.716;2024-03-08T08:33:16;3.10;17.50
26164;DHT22;13914;48.178;11.716;2024-03-08T08:35:41;3.30;17.40
26164;DHT22;13914;48.178;11.716;2024-03-08T08:38:08;3.30;17.50
26164;DHT22;13914;48.178;11.716;2024-03-08T08:40:34;3.40;17.50
26164;DHT22;13914;48.178;11.716;2024-03-08T08:43:01;3.60;17.40
26164;DHT22;13914;48.178;11.716;2024-03-08T08:45:30;3.70;17.40
26164;DHT22;13914;48.178;11.716;2024-03-08T08:47:56;3.80;17.10
26164;DHT22;13914;48.178;11.716;2024-03-08T08:50:22;3.90;17.20
26164;DHT22;13914;48.178;11.716;2024-03-08T08:52:54;4.00;17.20
26164;DHT22;13914;48.178;11.716;2024-03-08T08:55:20;4.10;17.00
26164;DHT22;13914;48.178;11.716;2024-03-08T08:57:52;4.20;16.80
26164;DHT22;13914;48.178;11.716;2024-03-08T09:00:18;4.30;16.70
26164;DHT22;13914;48.178;11.716;2024-03-08T09:02:45;4.40;16.60
26164;DHT22;13914;48.178;11.716;2024-03-08T09:05:12;4.50;16.60
26164;DHT22;13914;48.178;11.716;2024-03-08T09:07:42;4.50;16.40
26164;DHT22;13914;48.178;11.716;2024-03-08T09:10:09;4.70;16.40
26164;DHT22;13914;48.178;11.716;2024-03-08T09:12:40;4.80;16.30
26164;DHT22;13914;48.178;11.716;2024-03-08T09:15:06;4.90;16.20
26164;DHT22;13914;48.178;11.716;2024-03-08T09:17:36;5.00;16.80
26164;DHT22;13914;48.178;11.716;2024-03-08T09:20:08;5.10;16.30
26164;DHT22;13914;48.178;11.716;2024-03-08T09:22:35;5.20;15.90
26164;DHT22;13914;48.178;11.716;2024-03-08T09:25:01;5.30;15.50
26164;DHT22;13914;48.178;11.716;2024-03-08T09:27:27;5.40;15.50
26164;DHT22;13914;48.178;11.716;2024-03-08T09:29:53;5.50;15.60
26164;DHT22;13914;48.178;11.716;2024-03-08T09:32:20;5.60;15.80
26164;DHT22;13914;48.178;11.716;2024-03-08T09:34:48;5.70;15.70
26164;DHT22;13914;48.178;11.716;2024-03-08T09:37:13;5.80;15.80
26164;DHT22;13914;48.178;11.716;2024-03-08T09:39:39;5.90;15.80
26164;DHT22;13914;48.178;11.716;2024-03-08T09:42:05;6.00;15.80
26164;DHT22;13914;48.178;11.716;2024-03-08T09:44:31;6.10;15.80
26164;DHT22;13914;48.178;11.716;2024-03-08T09:46:57;6.20;15.80
26164;DHT22;13914;48.178;11.716;2024-03-08T09:49:23;6.30;15.10
26164;DHT22;13914;48.178;11.716;2024-03-08T09:51:50;6.40;15.10
26164;DHT22;13914;48.178;11.716;2024-03-08T09:54:16;6.50;15.10
26164;DHT22;13914;48.178;11.716;2024-03-08T09:56:42;6.60;14.80
26164;DHT22;13914;48.178;11.716;2024-03-08T09:59:09;6.70;14.80
26164;DHT22;13914;48.178;11.716;2024-03-08T10:02:11;6.80;14.90
26164;DHT22;13914;48.178;11.716;2024-03-08T10:04:40;6.90;15.10
26164;DHT22;13914;48.178;11.716;2024-03-08T10:07:11;7.00;15.20
26164;DHT22;13914;48.178;11.716;2024-03-08T10:09:37;7.10;16.00
26164;DHT22;13914;48.178;11.716;2024-03-08T10:12:04;7.20;15.10
26164;DHT22;13914;48.178;11.716;2024-03-08T10:14:30;7.40;14.90
26164;DHT22;13914;48.178;11.716;2024-03-08T10:16:57;7.40;13.90
26164;DHT22;13914;48.178;11.716;2024-03-08T10:19:25;7.60;14.20
26164;DHT22;13914;48.178;11.716;2024-03-08T10:21:52;7.70;14.00
26164;DHT22;13914;48.178;11.716;2024-03-08T10:24:19;7.80;13.30
26164;DHT22;13914;48.178;11.716;2024-03-08T10:26:45;7.80;13.30
26164;DHT22;13914;48.178;11.716;2024-03-08T10:29:11;7.90;13.70
26164;DHT22;13914;48.178;11.716;2024-03-08T10:31:43;8.00;14.10
26164;DHT22;13914;48.178;11.716;2024-03-08T10:34:10;8.10;13.70
26164;DHT22;13914;48.178;11.716;2024-03-08T10:36:35;8.20;13.70
26164;DHT22;13914;48.178;11.716;2024-03-08T10:39:03;8.30;13.80
26164;DHT22;13914;48.178;11.716;2024-03-08T10:41:58;8.40;13.70
26164;DHT22;13914;48.178;11.716;2024-03-08T10:44:32;8.50;13.50
26164;DHT22;13914;48.178;11.716;2024-03-08T10:49:31;8.70;12.90
26164;DHT22;13914;48.178;11.716;2024-03-08T10:52:02;8.80;12.90
26164;DHT22;13914;48.178;11.716;2024-03-08T10:54:29;8.90;12.80
26164;DHT22;13914;48.178;11.716;2024-03-08T10:56:57;9.00;12.80
26164;DHT22;13914;48.178;11.716;2024-03-08T10:59:22;9.00;12.80
26164;DHT22;13914;48.178;11.716;2024-03-08T11:01:49;9.10;11.90
26164;DHT22;13914;48.178;11.716;2024-03-08T11:04:16;9.20;11.20
26164;DHT22;13914;48.178;11.716;2024-03-08T11:06:45;9.30;11.60
26164;DHT22;13914;48.178;11.716;2024-03-08T11:09:28;9.30;11.90
26164;DHT22;13914;48.178;11.716;2024-03-08T11:14:51;9.40;11.30
26164;DHT22;13914;48.178;11.716;2024-03-08T11:17:25;9.60;10.90
26164;DHT22;13914;48.178;11.716;2024-03-08T11:20:26;9.60;11.00
26164;DHT22;13914;48.178;11.716;2024-03-08T11:30:43;9.90;11.20
26164;DHT22;13914;48.178;11.716;2024-03-08T11:33:12;10.10;11.40
26164;DHT22;13914;48.178;11.716;2024-03-08T11:35:39;10.10;11.40
26164;DHT22;13914;48.178;11.716;2024-03-08T11:38:07;10.10;10.80
26164;DHT22;13914;48.178;11.716;2024-03-08T11:40:33;10.20;11.10
26164;DHT22;13914;48.178;11.716;2024-03-08T11:43:00;10.30;11.20
26164;DHT22;13914;48.178;11.716;2024-03-08T11:45:28;10.40;11.80
26164;DHT22;13914;48.178;11.716;2024-03-08T11:47:54;10.40;11.20
26164;DHT22;13914;48.178;11.716;2024-03-08T11:50:20;10.50;11.30
26164;DHT22;13914;48.178;11.716;2024-03-08T11:52:46;10.50;11.10
26164;DHT22;13914;48.178;11.716;2024-03-08T11:55:12;10.60;10.90
26164;DHT22;13914;48.178;11.716;2024-03-08T11:57:38;10.70;10.70
26164;DHT22;13914;48.178;11.716;2024-03-08T12:00:04;10.80;10.90
26164;DHT22;13914;48.178;11.716;2024-03-08T12:02:33;10.90;10.90
26164;DHT22;13914;48.178;11.716;2024-03-08T12:05:05;10.90;9.60
26164;DHT22;13914;48.178;11.716;2024-03-08T12:07:41;11.00;10.00
26164;DHT22;13914;48.178;11.716;2024-03-08T12:10:18;11.10;10.30
26164;DHT22;13914;48.178;11.716;2024-03-08T12:12:46;11.10;10.40
26164;DHT22;13914;48.178;11.716;2024-03-08T12:15:13;11.20;10.10
26164;DHT22;13914;48.178;11.716;2024-03-08T12:17:40;11.20;10.50
26164;DHT22;13914;48.178;11.716;2024-03-08T12:20:11;11.30;10.40
26164;DHT22;13914;48.178;11.716;2024-03-08T12:22:42;11.40;10.20
26164;DHT22;13914;48.178;11.716;2024-03-08T12:25:08;11.40;10.20
26164;DHT22;13914;48.178;11.716;2024-03-08T12:27:38;11.50;10.10
26164;DHT22;13914;48.178;11.716;2024-03-08T12:30:15;11.60;10.00
26164;DHT22;13914;48.178;11.716;2024-03-08T12:32:54;11.70;10.30
26164;DHT22;13914;48.178;11.716;2024-03-08T12:35:23;11.70;10.00
26164;DHT22;13914;48.178;11.716;2024-03-08T12:37:52;11.80;9.70
26164;DHT22;13914;48.178;11.716;2024-03-08T12:40:18;11.80;10.10
26164;DHT22;13914;48.178;11.716;2024-03-08T12:42:45;11.90;10.40
26164;DHT22;13914;48.178;11.716;2024-03-08T12:45:13;12.00;10.10
26164;DHT22;13914;48.178;11.716;2024-03-08T12:47:39;12.00;9.40
26164;DHT22;13914;48.178;11.716;2024-03-08T12:50:07;12.10;9.80
26164;DHT22;13914;48.178;11.716;2024-03-08T12:52:34;12.10;9.90
26164;DHT22;13914;48.178;11.716;2024-03-08T12:55:00;12.20;9.00
26164;DHT22;13914;48.178;11.716;2024-03-08T12:57:28;12.20;9.00
26164;DHT22;13914;48.178;11.716;2024-03-08T12:59:54;12.30;9.70
26164;DHT22;13914;48.178;11.716;2024-03-08T13:02:20;12.40;10.30
26164;DHT22;13914;48.178;11.716;2024-03-08T13:04:46;12.40;10.30
26164;DHT22;13914;48.178;11.716;2024-03-08T13:07:21;12.50;10.10
26164;DHT22;13914;48.178;11.716;2024-03-08T13:09:47;12.50;9.20
26164;DHT22;13914;48.178;11.716;2024-03-08T13:12:12;12.60;9.50
26164;DHT22;13914;48.178;11.716;2024-03-08T13:14:40;12.70;9.40
26164;DHT22;13914;48.178;11.716;2024-03-08T13:17:06;12.70;9.30
26164;DHT22;13914;48.178;11.716;2024-03-08T13:19:36;12.80;9.50
26164;DHT22;13914;48.178;11.716;2024-03-08T13:22:03;12.80;9.90
26164;DHT22;13914;48.178;11.716;2024-03-08T13:24:30;12.90;10.30
26164;DHT22;13914;48.178;11.716;2024-03-08T13:26:56;13.00;10.30
26164;DHT22;13914;48.178;11.716;2024-03-08T13:29:22;13.00;10.50
26164;DHT22;13914;48.178;11.716;2024-03-08T13:31:48;13.10;10.60
26164;DHT22;13914;48.178;11.716;2024-03-08T13:34:20;13.20;10.80
26164;DHT22;13914;48.178;11.716;2024-03-08T13:36:53;13.20;11.40
26164;DHT22;13914;48.178;11.716;2024-03-08T13:39:20;13.30;11.10
26164;DHT22;13914;48.178;11.716;2024-03-08T13:41:46;13.30;11.20
26164;DHT22;13914;48.178;11.716;2024-03-08T13:44:12;13.40;10.00
26164;DHT22;13914;48.178;11.716;2024-03-08T13:46:38;13.40;10.70
26164;DHT22;13914;48.178;11.716;2024-03-08T13:49:04;13.50;9.40
26164;DHT22;13914;48.178;11.716;2024-03-08T13:51:33;13.50;8.90
26164;DHT22;13914;48.178;11.716;2024-03-08T13:53:59;13.60;10.20
26164;DHT22;13914;48.178;11.716;2024-03-08T13:56:28;13.60;10.10
26164;DHT22;13914;48.178;11.716;2024-03-08T13:58:57;13.70;10.80
26164;DHT22;13914;48.178;11.716;2024-03-08T14:01:23;13.70;11.20
26164;DHT22;13914;48.178;11.716;2024-03-08T14:03:48;13.70;9.70
26164;DHT22;13914;48.178;11.716;2024-03-08T14:06:14;13.70;8.50
26164;DHT22;13914;48.178;11.716;2024-03-08T14:08:40;13.80;9.40
26164;DHT22;13914;48.178;11.716;2024-03-08T14:11:06;13.80;10.00
26164;DHT22;13914;48.178;11.716;2024-03-08T14:13:44;13.80;10.90
26164;DHT22;13914;48.178;11.716;2024-03-08T14:16:13;13.90;10.80
26164;DHT22;13914;48.178;11.716;2024-03-08T14:18:39;13.90;9.10
26164;DHT22;13914;48.178;11.716;2024-03-08T14:21:04;13.90;10.10
26164;DHT22;13914;48.178;11.716;2024-03-08T14:23:30;13.90;9.70
26164;DHT22;13914;48.178;11.716;2024-03-08T14:25:58;14.00;10.40
26164;DHT22;13914;48.178;11.716;2024-03-08T14:28:24;14.00;9.80
26164;DHT22;13914;48.178;11.716;2024-03-08T14:30:51;14.00;8.50
26164;DHT22;13914;48.178;11.716;2024-03-08T14:33:18;14.00;6.70
26164;DHT22;13914;48.178;11.716;2024-03-08T14:35:43;14.00;8.50
26164;DHT22;13914;48.178;11.716;2024-03-08T14:38:11;14.00;6.80
26164;DHT22;13914;48.178;11.716;2024-03-08T14:40:38;14.00;8.70
26164;DHT22;13914;48.178;11.716;2024-03-08T14:43:04;14.00;9.40
26164;DHT22;13914;48.178;11.716;2024-03-08T14:45:30;14.00;8.90
26164;DHT22;13914;48.178;11.716;2024-03-08T14:47:56;14.00;8.40
26164;DHT22;13914;48.178;11.716;2024-03-08T14:50:23;13.90;9.20
26164;DHT22;13914;48.178;11.716;2024-03-08T14:52:49;14.00;9.40
26164;DHT22;13914;48.178;11.716;2024-03-08T14:55:16;13.90;9.40
26164;DHT22;13914;48.178;11.716;2024-03-08T14:57:42;13.90;9.30
26164;DHT22;13914;48.178;11.716;2024-03-08T15:00:11;13.90;7.70
26164;DHT22;13914;48.178;11.716;2024-03-08T15:02:42;13.90;8.10
26164;DHT22;13914;48.178;11.716;2024-03-08T15:05:08;13.80;8.30
26164;DHT22;13914;48.178;11.716;2024-03-08T15:07:39;13.80;8.40
26164;DHT22;13914;48.178;11.716;2024-03-08T15:10:08;13.80;7.70
26164;DHT22;13914;48.178;11.716;2024-03-08T15:12:41;13.80;8.30
26164;DHT22;13914;48.178;11.716;2024-03-08T15:15:09;13.70;7.90
26164;DHT22;13914;48.178;11.716;2024-03-08T15:17:35;13.70;8.20
26164;DHT22;13914;48.178;11.716;2024-03-08T15:20:02;13.70;8.00
26164;DHT22;13914;48.178;11.716;2024-03-08T15:22:28;13.60;8.20
26164;DHT22;13914;48.178;11.716;2024-03-08T15:24:54;13.50;8.10
26164;DHT22;13914;48.178;11.716;2024-03-08T15:27:20;13.50;8.20
26164;DHT22;13914;48.178;11.716;2024-03-08T15:29:46;13.50;8.00
26164;DHT22;13914;48.178;11.716;2024-03-08T15:32:16;13.50;7.90
26164;DHT22;13914;48.178;11.716;2024-03-08T15:34:45;13.40;7.90
26164;DHT22;13914;48.178;11.716;2024-03-08T15:37:11;13.40;8.10
26164;DHT22;13914;48.178;11.716;2024-03-08T15:39:43;13.30;7.80
26164;DHT22;13914;48.178;11.716;2024-03-08T15:42:09;13.30;8.00
26164;DHT22;13914;48.178;11.716;2024-03-08T15:44:37;13.20;8.00